createdAt,value
2018-11-14T00:01:06.818Z,9.66
2018-11-14T00:03:34.292Z,9.63
2018-11-14T00:06:02.233Z,9.65
2018-11-14T00:08:29.705Z,9.63
2018-11-14T00:10:57.197Z,9.60
2018-11-14T00:13:24.696Z,9.59
2018-11-14T00:15:53.633Z,9.57
2018-11-14T00:18:22.445Z,9.52
2018-11-14T00:20:49.935Z,9.49
2018-11-14T00:23:17.446Z,9.47
2018-11-14T00:25:45.359Z,9.44
2018-11-14T00:28:12.850Z,9.43
2018-11-14T00:30:40.336Z,9.41
2018-11-14T00:33:07.862Z,9.39
2018-11-14T00:35:35.855Z,9.35
2018-11-14T00:38:03.331Z,9.34
2018-11-14T00:40:30.838Z,9.32
2018-11-14T00:42:58.794Z,9.31
2018-11-14T00:45:26.428Z,9.31
2018-11-14T00:47:53.924Z,9.30
2018-11-14T00:50:21.941Z,9.29
2018-11-14T00:52:49.841Z,9.29
2018-11-14T00:55:20.427Z,9.27
2018-11-14T00:57:49.105Z,9.26
2018-11-14T01:00:19.944Z,9.26
2018-11-14T01:02:47.549Z,9.27
2018-11-14T01:05:15.695Z,9.27
2018-11-14T01:07:43.456Z,9.26
2018-11-14T01:10:12.952Z,9.25
2018-11-14T01:12:40.735Z,9.24
2018-11-14T01:15:08.225Z,9.25
2018-11-14T01:17:35.730Z,9.25
2018-11-14T01:20:03.524Z,9.24
2018-11-14T01:22:31.027Z,9.26
2018-11-14T01:24:58.513Z,9.26
2018-11-14T01:27:26.010Z,9.25
2018-11-14T01:29:53.519Z,9.25
2018-11-14T01:32:21.089Z,9.24
2018-11-14T01:34:48.597Z,9.24
2018-11-14T01:37:16.119Z,9.21
2018-11-14T01:39:46.321Z,9.19
2018-11-14T01:42:13.802Z,9.18
2018-11-14T01:44:41.319Z,9.16
2018-11-14T01:47:09.255Z,9.16
2018-11-14T01:49:36.740Z,9.17
2018-11-14T01:52:04.221Z,9.16
2018-11-14T01:54:31.697Z,9.14
2018-11-14T01:56:59.605Z,9.12
2018-11-14T01:59:27.094Z,9.11
2018-11-14T02:01:54.592Z,9.09
2018-11-14T02:04:22.384Z,9.07
2018-11-14T02:06:49.872Z,9.06
2018-11-14T02:09:17.353Z,9.05
2018-11-14T02:11:44.840Z,9.00
2018-11-14T02:14:12.703Z,8.95
2018-11-14T02:16:40.173Z,8.93
2018-11-14T02:19:07.664Z,8.91
2018-11-14T02:21:35.161Z,8.88
2018-11-14T02:24:03.065Z,8.87
2018-11-14T02:26:30.569Z,8.90
2018-11-14T02:28:58.069Z,8.93
2018-11-14T02:31:25.859Z,8.95
2018-11-14T02:33:53.345Z,8.96
2018-11-14T02:36:20.836Z,8.95
2018-11-14T02:38:48.329Z,8.96
2018-11-14T02:41:16.265Z,8.97
2018-11-14T02:43:43.777Z,8.96
2018-11-14T02:46:11.277Z,8.93
2018-11-14T02:48:39.049Z,8.89
2018-11-14T02:51:06.552Z,8.85
2018-11-14T02:53:34.049Z,8.83
2018-11-14T02:56:01.525Z,8.80
2018-11-14T02:58:29.308Z,8.75
2018-11-14T03:00:57.441Z,8.72
2018-11-14T03:03:24.961Z,8.70
2018-11-14T03:05:52.437Z,8.69
2018-11-14T03:08:21.273Z,8.70
2018-11-14T03:10:48.775Z,8.70
2018-11-14T03:13:16.273Z,8.68
2018-11-14T03:15:44.821Z,8.65
2018-11-14T03:18:12.651Z,8.63
2018-11-14T03:20:40.137Z,8.61
2018-11-14T03:23:07.665Z,8.63
2018-11-14T03:25:35.174Z,8.60
2018-11-14T03:28:03.115Z,8.59
2018-11-14T03:30:30.665Z,8.56
2018-11-14T03:32:58.163Z,8.54
2018-11-14T03:35:27.152Z,8.50
2018-11-14T03:37:54.655Z,8.47
2018-11-14T03:40:22.176Z,8.44
2018-11-14T03:42:49.994Z,8.42
2018-11-14T03:45:17.497Z,8.39
2018-11-14T03:47:45.015Z,8.38
2018-11-14T03:52:43.760Z,8.38
2018-11-14T03:55:11.281Z,8.41
2018-11-14T03:57:38.889Z,8.46
2018-11-14T04:00:06.451Z,8.48
2018-11-14T04:02:34.343Z,8.51
2018-11-14T04:05:01.840Z,8.51
2018-11-14T04:07:29.361Z,8.51
2018-11-14T04:09:57.328Z,8.48
2018-11-14T04:12:24.882Z,8.44
2018-11-14T04:14:52.371Z,8.42
2018-11-14T04:17:19.841Z,8.41
2018-11-14T04:19:47.760Z,8.38
2018-11-14T04:22:15.253Z,8.36
2018-11-14T04:24:42.739Z,8.33
2018-11-14T04:27:10.222Z,8.29
2018-11-14T04:29:38.017Z,8.25
2018-11-14T04:32:05.505Z,8.24
2018-11-14T04:34:33.001Z,8.19
2018-11-14T04:37:01.452Z,8.16
2018-11-14T04:39:29.292Z,8.14
2018-11-14T04:41:56.795Z,8.10
2018-11-14T04:44:24.320Z,8.08
2018-11-14T04:46:51.810Z,8.07
2018-11-14T04:49:19.728Z,8.05
2018-11-14T04:51:47.279Z,8.03
2018-11-14T04:54:14.810Z,8.01
2018-11-14T04:56:43.741Z,8.00
2018-11-14T04:59:11.376Z,8.00
2018-11-14T05:01:38.912Z,7.97
2018-11-14T05:04:06.764Z,7.93
2018-11-14T05:06:34.258Z,7.90
2018-11-14T05:09:01.782Z,7.86
2018-11-14T05:11:29.287Z,7.83
2018-11-14T05:13:57.216Z,7.80
2018-11-14T05:16:24.773Z,7.77
2018-11-14T05:18:52.277Z,7.73
2018-11-14T05:21:20.131Z,7.71
2018-11-14T05:23:47.630Z,7.66
2018-11-14T05:26:15.124Z,7.58
2018-11-14T05:28:42.915Z,7.48
2018-11-14T05:31:10.413Z,7.38
2018-11-14T05:33:37.893Z,7.29
2018-11-14T05:36:05.703Z,7.20
2018-11-14T05:38:33.585Z,7.10
2018-11-14T05:41:01.058Z,7.03
2018-11-14T05:43:28.933Z,6.93
2018-11-14T05:45:56.419Z,6.85
2018-11-14T05:48:23.913Z,6.77
2018-11-14T05:50:52.744Z,6.69
2018-11-14T05:53:20.240Z,6.68
2018-11-14T05:55:47.738Z,6.69
2018-11-14T05:58:15.674Z,6.71
2018-11-14T06:00:43.168Z,6.69
2018-11-14T06:03:10.653Z,6.68
2018-11-14T06:05:38.451Z,6.64
2018-11-14T06:08:05.977Z,6.60
2018-11-14T06:10:33.504Z,6.58
2018-11-14T06:13:01.472Z,6.59
2018-11-14T06:15:31.306Z,6.62
2018-11-14T06:17:58.789Z,6.70
2018-11-14T06:20:26.668Z,6.81
2018-11-14T06:22:54.628Z,6.92
2018-11-14T06:25:23.402Z,7.00
2018-11-14T06:27:52.432Z,7.06
2018-11-14T06:30:20.414Z,7.11
2018-11-14T06:32:48.035Z,7.16
2018-11-14T06:35:16.229Z,7.21
2018-11-14T06:37:43.812Z,7.27
2018-11-14T06:40:18.094Z,7.31
2018-11-14T06:42:45.898Z,7.35
2018-11-14T06:45:15.646Z,7.35
2018-11-14T06:47:44.490Z,7.33
2018-11-14T06:50:12.974Z,7.29
2018-11-14T06:52:41.039Z,7.18
2018-11-14T06:55:08.571Z,7.05
2018-11-14T06:57:36.481Z,6.93
2018-11-14T07:00:05.112Z,6.82
2018-11-14T07:02:38.335Z,6.73
2018-11-14T07:05:00.857Z,6.63
2018-11-14T07:07:28.509Z,6.58
2018-11-14T07:09:57.350Z,6.53
2018-11-14T07:12:25.205Z,6.49
2018-11-14T07:14:52.685Z,6.48
2018-11-14T07:17:20.223Z,6.48
2018-11-14T07:19:48.184Z,6.45
2018-11-14T07:22:15.729Z,6.43
2018-11-14T07:24:43.290Z,6.43
2018-11-14T07:27:11.159Z,6.45
2018-11-14T07:29:39.525Z,6.46
2018-11-14T07:32:07.941Z,6.47
2018-11-14T07:34:35.794Z,6.46
2018-11-14T07:37:03.278Z,6.46
2018-11-14T07:39:30.765Z,6.49
2018-11-14T07:41:58.583Z,6.50
2018-11-14T07:44:26.048Z,6.54
2018-11-14T07:46:54.541Z,6.62
2018-11-14T07:49:22.392Z,6.65
2018-11-14T07:51:53.572Z,6.69
2018-11-14T07:54:24.768Z,6.70
2018-11-14T07:56:55.594Z,6.73
2018-11-14T07:59:23.088Z,6.76
2018-11-14T08:01:50.590Z,6.78
2018-11-14T08:04:18.742Z,6.83
2018-11-14T08:06:46.232Z,6.87
2018-11-14T08:09:13.700Z,6.91
2018-11-14T08:11:41.593Z,7.05
2018-11-14T08:14:09.072Z,7.26
2018-11-14T08:16:37.148Z,7.48
2018-11-14T08:19:05.093Z,7.68
2018-11-14T08:21:32.537Z,7.91
2018-11-14T08:24:01.663Z,8.22
2018-11-14T08:26:29.626Z,8.53
2018-11-14T08:28:58.146Z,8.77
2018-11-14T08:31:25.642Z,8.90
2018-11-14T08:33:53.610Z,8.96
2018-11-14T08:36:21.121Z,8.97
2018-11-14T08:38:48.621Z,8.97
2018-11-14T08:41:16.616Z,8.98
2018-11-14T08:43:45.081Z,9.02
2018-11-14T08:46:12.565Z,9.03
2018-11-14T08:48:40.542Z,9.02
2018-11-14T08:51:08.247Z,9.04
2018-11-14T08:53:35.747Z,9.06
2018-11-14T08:56:05.442Z,9.05
2018-11-14T08:58:32.992Z,9.04
2018-11-14T09:01:00.512Z,9.06
2018-11-14T09:03:28.445Z,9.08
2018-11-14T09:05:56.783Z,9.20
2018-11-14T09:08:24.275Z,9.33
2018-11-14T09:10:52.306Z,9.45
2018-11-14T09:13:19.800Z,9.58
2018-11-14T09:15:47.916Z,9.69
2018-11-14T09:18:15.869Z,9.82
2018-11-14T09:20:44.133Z,9.97
2018-11-14T09:23:11.688Z,10.13
2018-11-14T09:25:39.620Z,10.31
2018-11-14T09:28:09.005Z,10.52
2018-11-14T09:30:36.502Z,10.77
2018-11-14T09:33:04.570Z,11.05
2018-11-14T09:35:32.022Z,11.33
2018-11-14T09:38:00.701Z,11.67
2018-11-14T09:40:29.453Z,12.08
2018-11-14T09:42:57.514Z,12.61
2018-11-14T09:45:26.197Z,13.50
2018-11-14T09:47:55.104Z,14.55
2018-11-14T09:50:23.744Z,15.58
2018-11-14T09:53:06.186Z,16.32
2018-11-14T09:55:34.097Z,16.90
2018-11-14T09:58:01.654Z,17.20
2018-11-14T10:00:34.006Z,17.35
2018-11-14T10:03:01.893Z,17.60
2018-11-14T10:05:29.392Z,17.91
2018-11-14T10:07:58.078Z,18.41
2018-11-14T10:10:26.387Z,18.97
2018-11-14T10:12:53.885Z,19.43
2018-11-14T10:15:23.379Z,19.77
2018-11-14T10:17:51.270Z,20.21
2018-11-14T10:20:20.984Z,20.73
2018-11-14T10:22:48.530Z,21.26
2018-11-14T10:25:18.767Z,21.53
2018-11-14T10:27:46.779Z,21.52
2018-11-14T10:30:15.599Z,21.29
2018-11-14T10:32:44.335Z,21.43
2018-11-14T10:35:12.208Z,21.51
2018-11-14T10:37:43.553Z,21.41
2018-11-14T10:40:14.512Z,21.13
2018-11-14T10:42:43.471Z,21.10
2018-11-14T10:45:11.677Z,21.12
2018-11-14T10:47:39.594Z,21.07
2018-11-14T10:50:08.836Z,20.66
2018-11-14T10:52:38.808Z,20.36
2018-11-14T10:55:07.417Z,20.20
2018-11-14T10:57:35.295Z,20.25
2018-11-14T11:00:03.535Z,20.57
2018-11-14T11:02:39.268Z,20.96
2018-11-14T11:05:13.045Z,21.40
2018-11-14T11:07:45.846Z,21.66
2018-11-14T11:10:18.472Z,22.07
2018-11-14T11:12:51.484Z,22.48
2018-11-14T11:17:27.466Z,22.52
2018-11-14T11:19:55.669Z,22.64
2018-11-14T11:22:24.337Z,22.43
2018-11-14T11:24:53.374Z,21.95
2018-11-14T11:27:20.883Z,21.46
2018-11-14T11:29:50.104Z,21.13
2018-11-14T11:32:21.566Z,21.03
2018-11-14T11:34:51.574Z,20.74
2018-11-14T11:37:19.418Z,20.41
2018-11-14T11:39:48.085Z,20.00
2018-11-14T11:42:15.594Z,19.70
2018-11-14T11:44:43.458Z,19.48
2018-11-14T11:47:14.505Z,19.33
2018-11-14T11:49:41.993Z,19.05
2018-11-14T11:52:10.898Z,18.73
2018-11-14T11:54:38.418Z,18.40
2018-11-14T11:57:06.860Z,18.11
2018-11-14T11:59:34.850Z,17.73
2018-11-14T12:02:02.342Z,17.49
2018-11-14T12:04:30.135Z,17.19
2018-11-14T12:06:58.377Z,16.97
2018-11-14T12:09:25.922Z,16.73
2018-11-14T12:11:53.513Z,16.56
2018-11-14T12:14:21.339Z,16.45
2018-11-14T12:16:50.127Z,16.35
2018-11-14T12:19:17.757Z,16.17
2018-11-14T12:21:46.319Z,16.03
2018-11-14T12:24:13.833Z,15.93
2018-11-14T12:26:41.336Z,15.85
2018-11-14T12:29:10.749Z,15.76
2018-11-14T12:31:39.450Z,15.70
2018-11-14T12:34:06.965Z,15.64
2018-11-14T12:36:34.800Z,15.55
2018-11-14T12:39:02.276Z,15.45
2018-11-14T12:41:29.761Z,15.38
2018-11-14T12:43:57.577Z,15.29
2018-11-14T12:46:25.286Z,15.22
2018-11-14T12:48:52.813Z,15.14
2018-11-14T12:51:21.658Z,15.07
2018-11-14T12:53:49.154Z,15.02
2018-11-14T12:56:16.689Z,14.97
2018-11-14T12:58:45.446Z,14.88
2018-11-14T13:01:12.941Z,14.77
2018-11-14T13:03:40.410Z,14.68
2018-11-14T13:06:08.295Z,14.63
2018-11-14T13:08:36.756Z,14.62
2018-11-14T13:11:04.773Z,14.61
2018-11-14T13:13:37.679Z,14.62
2018-11-14T13:16:20.273Z,14.64
2018-11-14T13:18:48.850Z,14.67
2018-11-14T13:21:16.383Z,14.69
2018-11-14T13:23:45.021Z,14.68
2018-11-14T13:26:13.646Z,14.68
2018-11-14T13:28:42.629Z,14.65
2018-11-14T13:31:10.943Z,14.65
2018-11-14T13:33:38.763Z,14.64
2018-11-14T13:36:07.180Z,14.61
2018-11-14T13:38:34.665Z,14.60
2018-11-14T13:41:02.590Z,14.60
2018-11-14T13:43:32.617Z,14.60
2018-11-14T13:46:00.111Z,14.63
2018-11-14T13:48:28.006Z,14.63
2018-11-14T13:50:55.695Z,14.60
2018-11-14T13:53:23.054Z,14.56
2018-11-14T13:55:50.981Z,14.58
2018-11-14T13:58:18.475Z,14.59
2018-11-14T14:00:46.813Z,14.63
2018-11-14T14:03:14.840Z,14.65
2018-11-14T14:05:43.205Z,14.68
2018-11-14T14:08:10.765Z,14.68
2018-11-14T14:10:38.614Z,14.69
2018-11-14T14:13:06.218Z,14.68
2018-11-14T14:15:33.797Z,14.64
2018-11-14T14:18:01.641Z,14.59
2018-11-14T14:20:29.765Z,14.55
2018-11-14T14:22:57.487Z,14.53
2018-11-14T14:25:25.398Z,14.47
2018-11-14T14:27:53.493Z,14.42
2018-11-14T14:30:22.220Z,14.38
2018-11-14T14:32:51.892Z,14.34
2018-11-14T14:35:20.499Z,14.26
2018-11-14T14:37:48.002Z,14.19
2018-11-14T14:40:18.238Z,14.09
2018-11-14T14:42:47.705Z,13.98
2018-11-14T14:45:17.700Z,13.85
2018-11-14T14:47:45.649Z,13.70
2018-11-14T14:50:17.038Z,13.56
2018-11-14T14:52:45.124Z,13.43
2018-11-14T14:55:14.217Z,13.30
2018-11-14T14:57:43.677Z,13.18
2018-11-14T15:00:27.480Z,13.08
2018-11-14T15:02:55.009Z,12.97
2018-11-14T15:05:22.546Z,12.86
2018-11-14T15:07:51.151Z,12.75
2018-11-14T15:10:20.756Z,12.65
2018-11-14T15:12:49.488Z,12.56
2018-11-14T15:15:18.933Z,12.47
2018-11-14T15:17:46.544Z,12.37
2018-11-14T15:20:15.332Z,12.24
2018-11-14T15:22:43.605Z,12.09
2018-11-14T15:25:12.561Z,11.92
2018-11-14T15:27:40.682Z,11.74
2018-11-14T15:30:08.667Z,11.57
2018-11-14T15:32:36.173Z,11.41
2018-11-14T15:35:03.796Z,11.25
2018-11-14T15:37:31.721Z,11.09
2018-11-14T15:40:00.845Z,11.01
2018-11-14T15:42:28.414Z,10.92
2018-11-14T15:44:57.052Z,10.81
2018-11-14T15:47:25.176Z,10.70
2018-11-14T15:49:52.837Z,10.57
2018-11-14T15:52:22.341Z,10.48
2018-11-14T15:54:49.838Z,10.39
2018-11-14T15:57:17.386Z,10.32
2018-11-14T15:59:46.155Z,10.24
2018-11-14T16:02:13.698Z,10.16
2018-11-14T16:04:41.274Z,10.10
2018-11-14T16:07:09.638Z,10.06
2018-11-14T16:09:38.087Z,10.02
2018-11-14T16:12:05.607Z,9.96
2018-11-14T16:14:33.508Z,9.92
2018-11-14T16:17:00.982Z,9.86
2018-11-14T16:19:28.482Z,9.79
2018-11-14T16:21:56.314Z,9.75
2018-11-14T16:24:23.899Z,9.71
2018-11-14T16:26:52.392Z,9.68
2018-11-14T16:29:20.930Z,9.61
2018-11-14T16:31:48.476Z,9.52
2018-11-14T16:34:18.602Z,9.45
2018-11-14T16:36:46.640Z,9.35
2018-11-14T16:39:14.521Z,9.29
2018-11-14T16:41:42.055Z,9.21
2018-11-14T16:44:10.622Z,9.14
2018-11-14T16:46:39.310Z,9.04
2018-11-14T16:49:07.800Z,9.00
2018-11-14T16:51:35.618Z,8.94
2018-11-14T16:54:04.731Z,8.86
2018-11-14T16:56:32.256Z,8.81
2018-11-14T16:59:00.474Z,8.76
2018-11-14T17:01:27.988Z,8.75
2018-11-14T17:03:55.482Z,8.74
2018-11-14T17:06:23.420Z,8.72
2018-11-14T17:08:51.517Z,8.70
2018-11-14T17:11:19.028Z,8.67
2018-11-14T17:13:48.104Z,8.68
2018-11-14T17:16:15.603Z,8.69
2018-11-14T17:18:43.119Z,8.68
2018-11-14T17:21:13.588Z,8.68
2018-11-14T17:23:41.355Z,8.67
2018-11-14T17:26:08.869Z,8.64
2018-11-14T17:28:37.094Z,8.60
2018-11-14T17:31:04.613Z,8.51
2018-11-14T17:33:32.373Z,8.45
2018-11-14T17:36:01.465Z,8.39
2018-11-14T17:38:28.937Z,8.35
2018-11-14T17:40:57.405Z,8.30
2018-11-14T17:43:27.252Z,8.26
2018-11-14T17:45:54.729Z,8.21
2018-11-14T17:48:22.992Z,8.16
2018-11-14T17:50:54.525Z,8.11
2018-11-14T17:53:22.331Z,8.04
2018-11-14T17:55:49.814Z,7.98
2018-11-14T17:58:18.188Z,7.93
2018-11-14T18:00:46.397Z,7.88
2018-11-14T18:03:15.366Z,7.85
2018-11-14T18:05:45.061Z,7.80
2018-11-14T18:08:12.589Z,7.77
2018-11-14T18:10:41.054Z,7.73
2018-11-14T18:13:10.189Z,7.72
2018-11-14T18:15:37.707Z,7.67
2018-11-14T18:18:06.552Z,7.62
2018-11-14T18:20:35.153Z,7.61
2018-11-14T18:25:47.524Z,7.59
2018-11-14T18:28:15.116Z,7.60
2018-11-14T18:30:42.770Z,7.59
2018-11-14T18:33:11.477Z,7.59
2018-11-14T18:35:39.827Z,7.56
2018-11-14T18:38:07.359Z,7.54
2018-11-14T18:40:36.517Z,7.51
2018-11-14T18:43:06.486Z,7.45
2018-11-14T18:45:36.312Z,7.41
2018-11-14T18:48:05.307Z,7.37
2018-11-14T18:50:33.859Z,7.37
2018-11-14T18:53:03.628Z,7.34
2018-11-14T18:55:33.610Z,7.34
2018-11-14T18:58:02.034Z,7.32
2018-11-14T19:00:32.098Z,7.27
2018-11-14T19:02:59.797Z,7.23
2018-11-14T19:05:27.470Z,7.20
2018-11-14T19:07:57.563Z,7.16
2018-11-14T19:10:27.160Z,7.13
2018-11-14T19:12:55.488Z,7.08
2018-11-14T19:15:26.406Z,7.03
2018-11-14T19:17:54.015Z,7.00
2018-11-14T19:20:23.244Z,6.93
2018-11-14T19:22:52.096Z,6.87
2018-11-14T19:25:21.843Z,6.81
2018-11-14T19:27:50.399Z,6.74
2018-11-14T19:30:20.371Z,6.69
2018-11-14T19:32:50.148Z,6.62
2018-11-14T19:35:17.864Z,6.58
2018-11-14T19:37:47.870Z,6.56
2018-11-14T19:40:18.469Z,6.52
2018-11-14T19:42:46.843Z,6.46
2018-11-14T19:45:18.185Z,6.43
2018-11-14T19:47:46.925Z,6.41
2018-11-14T19:50:17.461Z,6.47
2018-11-14T19:52:46.516Z,6.56
2018-11-14T19:55:15.189Z,6.67
2018-11-14T19:57:43.703Z,6.71
2018-11-14T20:00:11.602Z,6.76
2018-11-14T20:02:41.915Z,6.76
2018-11-14T20:05:09.868Z,6.72
2018-11-14T20:07:40.444Z,6.69
2018-11-14T20:10:08.752Z,6.66
2018-11-14T20:12:37.454Z,6.65
2018-11-14T20:15:05.392Z,6.63
2018-11-14T20:17:33.928Z,6.63
2018-11-14T20:20:01.411Z,6.64
2018-11-14T20:22:30.209Z,6.66
2018-11-14T20:24:57.709Z,6.65
2018-11-14T20:27:27.989Z,6.64
2018-11-14T20:29:55.824Z,6.66
2018-11-14T20:32:23.355Z,6.70
2018-11-14T20:34:50.849Z,6.75
2018-11-14T20:37:19.444Z,6.74
2018-11-14T20:39:48.357Z,6.70
2018-11-14T20:42:15.879Z,6.66
2018-11-14T20:44:43.824Z,6.62
2018-11-14T20:47:11.532Z,6.58
2018-11-14T20:49:39.077Z,6.54
2018-11-14T20:52:07.897Z,6.51
2018-11-14T20:54:35.380Z,6.50
2018-11-14T20:57:03.511Z,6.47
2018-11-14T20:59:31.477Z,6.46
2018-11-14T21:01:58.944Z,6.41
2018-11-14T21:04:26.490Z,6.38
2018-11-14T21:06:54.482Z,6.37
2018-11-14T21:09:21.969Z,6.38
2018-11-14T21:11:50.444Z,6.38
2018-11-14T21:14:18.357Z,6.37
2018-11-14T21:16:45.873Z,6.34
2018-11-14T21:19:13.369Z,6.31
2018-11-14T21:21:41.316Z,6.29
2018-11-14T21:24:08.829Z,6.26
2018-11-14T21:26:36.472Z,6.23
2018-11-14T21:29:04.419Z,6.16
2018-11-14T21:31:31.895Z,6.09
2018-11-14T21:33:59.353Z,6.01
2018-11-14T21:36:29.825Z,5.94
2018-11-14T21:38:57.361Z,5.85
2018-11-14T21:41:24.921Z,5.78
2018-11-14T21:43:52.776Z,5.69
2018-11-14T21:46:21.874Z,5.61
2018-11-14T21:48:50.160Z,5.52
2018-11-14T21:51:18.763Z,5.48
2018-11-14T21:53:46.256Z,5.44
2018-11-14T21:56:13.768Z,5.41
2018-11-14T21:58:41.601Z,5.40
2018-11-14T22:01:10.275Z,5.35
2018-11-14T22:03:38.497Z,5.32
2018-11-14T22:06:06.426Z,5.30
2018-11-14T22:08:33.937Z,5.28
2018-11-14T22:11:01.449Z,5.28
2018-11-14T22:13:29.418Z,5.29
2018-11-14T22:15:57.018Z,5.29
2018-11-14T22:18:24.521Z,5.27
2018-11-14T22:20:52.383Z,5.22
2018-11-14T22:23:19.914Z,5.21
2018-11-14T22:25:47.415Z,5.19
2018-11-14T22:28:14.933Z,5.16
2018-11-14T22:30:42.877Z,5.12
2018-11-14T22:33:10.397Z,5.09
2018-11-14T22:35:37.885Z,5.05
2018-11-14T22:38:05.368Z,5.02
2018-11-14T22:40:34.121Z,4.97
2018-11-14T22:43:02.212Z,4.94
2018-11-14T22:45:31.124Z,4.92
2018-11-14T22:47:58.964Z,4.89
2018-11-14T22:50:26.921Z,4.87
2018-11-14T22:52:55.248Z,4.85
2018-11-14T22:55:24.001Z,4.83
2018-11-14T22:57:52.076Z,4.80
2018-11-14T23:00:22.612Z,4.76
2018-11-14T23:02:52.659Z,4.72
2018-11-14T23:05:20.172Z,4.68
2018-11-14T23:07:48.956Z,4.63
2018-11-14T23:10:16.662Z,4.61
2018-11-14T23:12:44.456Z,4.60
2018-11-14T23:15:12.736Z,4.58
2018-11-14T23:17:40.898Z,4.56
2018-11-14T23:20:10.312Z,4.55
2018-11-14T23:22:38.421Z,4.55
2018-11-14T23:25:06.889Z,4.54
2018-11-14T23:27:34.537Z,4.54
2018-11-14T23:30:03.589Z,4.53
2018-11-14T23:32:31.094Z,4.55
2018-11-14T23:35:04.081Z,4.57
2018-11-14T23:37:32.552Z,4.57
2018-11-14T23:40:00.044Z,4.57
2018-11-14T23:42:27.968Z,4.54
2018-11-14T23:44:55.485Z,4.53
2018-11-14T23:47:22.996Z,4.51
2018-11-14T23:49:50.485Z,4.51
2018-11-14T23:52:18.572Z,4.51
2018-11-14T23:54:46.085Z,4.51
2018-11-14T23:57:13.584Z,4.51
2018-11-14T23:59:41.396Z,4.51
